Time;durP1;ratioP1;P1;durP2;ratioP2;P2;SDS_P1;SDS_P2;PMS_P1;PMS_P2;Temp;Humidity;BMP_temperature;BMP_pressure;BME280_temperature;BME280_humidity;BME280_pressure;Samples;Min_cycle;Max_cycle;Signal;HPM_P1;HPM_P2
2021/01/17 00:01:20;;;;;;;20.23;6.00;;;;;;;-15.39;85.83;101021.42;1777763;80;21068;-86
2021/01/17 00:08:13;;;;;;;15.20;5.78;;;;;;;-15.37;85.33;101016.47;1780877;80;21540;-85
2021/01/17 00:14:45;;;;;;;20.55;8.03;;;;;;;-15.41;85.47;101011.77;1780887;80;20985;-85
2021/01/17 00:21:45;;;;;;;16.12;6.25;;;;;;;-15.26;85.45;101009.38;1780838;80;21131;-86
2021/01/17 00:33:03;;;;;;;16.10;7.35;;;;;;;-15.40;84.08;100988.88;1780814;80;21164;-86
2021/01/17 00:39:54;;;;;;;11.53;4.58;;;;;;;-15.49;84.44;100990.65;1780879;80;21069;-86
2021/01/17 00:46:26;;;;;;;8.93;3.12;;;;;;;-15.49;84.50;100983.53;1798834;79;21163;-86
2021/01/17 00:53:18;;;;;;;11.08;5.33;;;;;;;-15.50;84.92;100981.86;1786549;80;21036;-86
2021/01/17 01:00:16;;;;;;;18.10;6.87;;;;;;;-15.46;84.72;100974.92;1786587;80;21009;-85
2021/01/17 10:18:45;;;;;;;24.52;10.40;;;;;;;-14.11;74.07;100920.21;1808714;77;21188;-89
2021/01/17 10:21:16;;;;;;;24.00;9.28;;;;;;;-14.39;74.22;100919.37;1808602;78;21195;-90
2021/01/17 10:23:45;;;;;;;25.30;11.70;;;;;;;-14.60;75.01;100919.53;1818336;78;21296;-89
2021/01/17 10:26:18;;;;;;;24.25;9.55;;;;;;;-14.75;75.49;100914.89;1811883;78;21201;-89
2021/01/17 10:28:47;;;;;;;32.42;13.13;;;;;;;-14.87;76.30;100914.50;1763669;80;21166;-89
2021/01/17 10:31:20;;;;;;;24.45;9.23;;;;;;;-14.98;76.58;100912.48;1798294;79;21094;-90
2021/01/17 10:33:49;;;;;;;22.65;10.03;;;;;;;-15.00;77.24;100905.33;1760232;79;21146;-90
2021/01/17 10:36:19;;;;;;;25.05;9.30;;;;;;;-15.11;77.20;100901.63;1766827;81;21421;-89
2021/01/17 10:38:50;;;;;;;23.85;9.60;;;;;;;-15.17;77.43;100897.65;1734486;81;21630;-89
2021/01/17 10:41:27;;;;;;;22.22;9.10;;;;;;;-15.12;77.60;100904.92;1783663;79;21158;-89
2021/01/17 10:44:07;;;;;;;14.95;6.58;;;;;;;-15.09;77.73;100904.63;1787398;79;21168;-90
2021/01/17 10:46:41;;;;;;;18.52;8.08;;;;;;;-15.04;77.72;100899.79;1794942;79;21213;-90
2021/01/17 10:49:20;;;;;;;25.70;10.98;;;;;;;-15.08;77.24;100891.72;1791167;79;21134;-89
2021/01/17 10:51:56;;;;;;;13.45;5.10;;;;;;;-15.15;77.61;100898.56;1787581;79;21146;-90
2021/01/17 10:54:32;;;;;;;14.28;6.40;;;;;;;-15.24;77.76;100896.20;1799100;78;21152;-90
2021/01/17 10:57:05;;;;;;;13.05;4.50;;;;;;;-15.31;77.98;100895.53;1803728;78;21181;-90
2021/01/17 10:59:35;;;;;;;18.75;7.85;;;;;;;-15.43;78.21;100900.11;1765205;79;21608;-90
2021/01/17 11:02:04;;;;;;;19.12;8.33;;;;;;;-15.49;78.54;100892.38;1796778;79;21361;-91
2021/01/17 11:04:41;;;;;;;21.97;9.65;;;;;;;-15.53;78.75;100893.08;1794033;79;21122;-90
2021/01/17 11:07:09;;;;;;;15.95;7.08;;;;;;;-15.55;79.06;100896.38;1789761;79;21171;-89
2021/01/17 11:09:38;;;;;;;19.65;8.43;;;;;;;-15.50;79.13;100889.05;1801478;78;21199;-90
2021/01/17 11:12:08;;;;;;;30.45;10.15;;;;;;;-15.46;79.04;100890.00;1801958;78;21149;-90
2021/01/17 11:14:37;;;;;;;29.77;11.88;;;;;;;-15.44;79.00;100892.17;1795341;79;21681;-90
2021/01/17 11:17:06;;;;;;;23.02;9.93;;;;;;;-15.42;78.96;100891.83;1787545;79;21622;-91
2021/01/17 11:19:40;;;;;;;25.05;10.28;;;;;;;-15.43;78.78;100898.87;1791137;79;21546;-90
2021/01/17 11:22:10;;;;;;;25.30;10.30;;;;;;;-15.49;78.53;100898.63;1786453;79;21261;-91
2021/01/17 11:24:41;;;;;;;15.50;7.12;;;;;;;-15.59;79.02;100897.45;1786360;78;21607;-88
2021/01/17 11:27:15;;;;;;;27.45;10.72;;;;;;;-15.62;79.10;100898.61;1810304;78;22053;-88
2021/01/17 11:29:45;;;;;;;8.13;4.42;;;;;;;-15.62;79.48;100892.37;1810183;78;21194;-89
2021/01/17 11:32:14;;;;;;;25.72;10.03;;;;;;;-15.62;79.16;100883.22;1808653;78;21150;-89
2021/01/17 11:34:45;;;;;;;21.07;9.45;;;;;;;-15.61;79.67;100881.56;1782945;79;21160;-89
2021/01/17 11:37:13;;;;;;;12.00;5.15;;;;;;;-15.61;78.91;100882.42;1798854;79;21526;-89
2021/01/17 11:39:41;;;;;;;12.58;5.22;;;;;;;-15.65;78.57;100888.50;1798082;79;21346;-89
2021/01/17 11:42:18;;;;;;;19.27;9.98;;;;;;;-15.70;78.67;100896.66;1791564;79;21720;-89
2021/01/17 11:44:48;;;;;;;15.38;7.70;;;;;;;-15.70;79.07;100894.58;1791346;79;21190;-89
2021/01/17 11:47:19;;;;;;;32.90;14.75;;;;;;;-15.65;79.42;100883.51;1795859;79;21106;-88
2021/01/17 11:49:48;;;;;;;25.25;10.63;;;;;;;-15.63;79.18;100881.52;1784381;79;21122;-89
2021/01/17 11:52:16;;;;;;;11.48;5.75;;;;;;;-15.61;79.22;100882.42;1796078;79;22390;-89
2021/01/17 11:54:44;;;;;;;19.48;7.47;;;;;;;-15.61;79.42;100882.80;1787771;79;21157;-90
2021/01/17 11:57:14;;;;;;;29.90;10.93;;;;;;;-15.68;79.93;100877.14;1788515;79;21198;-90
2021/01/17 12:00:07;;;;;;;26.83;9.57;;;;;;;-15.76;80.15;100876.88;1786455;79;21153;-89
2021/01/17 12:03:21;;;;;;;31.50;11.30;;;;;;;-15.80;80.76;100871.31;1765792;80;21122;-89
2021/01/17 12:06:05;;;;;;;31.10;12.05;;;;;;;-15.76;81.06;100879.38;1747277;80;21359;-90
2021/01/17 12:09:01;;;;;;;29.67;11.03;;;;;;;-15.63;83.66;100880.67;1710836;82;21614;-89
2021/01/17 12:12:00;;;;;;;28.40;11.45;;;;;;;-15.49;82.34;100879.89;1728282;80;21123;-88
2021/01/17 12:14:28;;;;;;;22.13;7.80;;;;;;;-15.52;81.41;100876.89;1736999;81;21246;-88
2021/01/17 12:16:59;;;;;;;22.02;7.67;;;;;;;-15.60;81.26;100879.52;1734435;82;21123;-88
2021/01/17 12:19:37;;;;;;;21.25;8.55;;;;;;;-15.65;81.17;100880.60;1734435;80;22126;-88
2021/01/17 12:22:12;;;;;;;40.33;16.50;;;;;;;-15.69;81.66;100881.30;1766065;79;21211;-87
2021/01/17 12:24:40;;;;;;;24.40;10.20;;;;;;;-15.67;81.79;100883.84;1740509;81;21086;-88
2021/01/17 12:27:38;;;;;;;24.40;9.93;;;;;;;-15.61;81.89;100892.41;1754843;80;21133;-88
2021/01/17 12:34:19;;;;;;;18.80;7.87;;;;;;;-15.49;80.64;100889.50;1722071;82;21144;-88
2021/01/17 12:40:51;;;;;;;25.55;9.15;;;;;;;-15.49;80.30;100883.64;1725055;81;21166;-88
2021/01/17 12:43:20;;;;;;;19.02;9.05;;;;;;;-15.52;79.99;100885.64;1719829;81;21099;-88
2021/01/17 12:45:48;;;;;;;15.00;6.58;;;;;;;-15.56;80.05;100880.93;1728689;81;21072;-88
2021/01/17 12:48:16;;;;;;;31.75;12.70;;;;;;;-15.59;80.11;100881.22;1718879;82;21368;-89
2021/01/17 12:50:46;;;;;;;16.90;5.37;;;;;;;-15.63;80.48;100879.02;1727240;81;21559;-89
2021/01/17 12:53:15;;;;;;;23.38;10.78;;;;;;;-15.62;80.82;100878.64;1733933;81;28306;-88
2021/01/17 12:55:47;;;;;;;16.90;7.60;;;;;;;-15.66;80.16;100886.39;1734426;81;21229;-89
2021/01/17 12:58:25;;;;;;;20.23;9.60;;;;;;;-15.70;80.16;100885.42;1795233;78;21184;-91
2021/01/17 13:00:56;;;;;;;13.18;6.47;;;;;;;-15.75;79.60;100881.92;1789195;78;21375;-86
2021/01/17 13:07:29;;;;;;;21.42;7.90;;;;;;;-15.87;79.74;100881.11;1750098;79;21117;-87
2021/01/17 13:13:35;;;;;;;22.58;10.72;;;;;;;-16.04;79.96;100885.48;1719793;81;21230;-90
2021/01/17 13:16:13;;;;;;;16.35;7.05;;;;;;;-16.17;80.45;100893.28;1766583;80;21359;-86
2021/01/17 13:18:59;;;;;;;14.18;5.83;;;;;;;-16.21;81.02;100895.22;1866968;76;22697;-93
2021/01/17 13:21:38;;;;;;;25.05;9.48;;;;;;;-16.35;81.15;100901.78;1826065;78;21128;-92
2021/01/17 13:29:03;;;;;;;28.30;8.60;;;;;;;-16.36;81.51;100915.42;1758140;80;21558;-88
2021/01/17 13:31:35;;;;;;;19.90;9.33;;;;;;;-16.34;81.62;100901.37;1755717;80;21163;-86
2021/01/17 13:34:12;;;;;;;28.12;10.70;;;;;;;-16.33;81.67;100895.59;1771406;79;21164;-92
2021/01/17 13:36:44;;;;;;;24.23;11.50;;;;;;;-16.31;81.74;100893.16;1773023;79;21659;-92
2021/01/17 13:39:20;;;;;;;17.42;8.58;;;;;;;-16.30;81.59;100888.63;1771643;79;21097;-92
2021/01/17 13:41:53;;;;;;;15.10;7.25;;;;;;;-16.34;81.17;100892.23;1768036;79;21163;-92
2021/01/17 13:44:57;;;;;;;31.00;12.10;;;;;;;-16.38;81.57;100883.36;1753686;80;21151;-92
2021/01/17 13:47:39;;;;;;;17.35;6.95;;;;;;;-16.40;81.61;100878.28;1771534;80;21366;-86
2021/01/17 13:50:32;;;;;;;23.27;8.58;;;;;;;-16.40;81.66;100879.94;1773885;79;21203;-92
2021/01/17 13:53:39;;;;;;;23.18;10.40;;;;;;;-16.41;81.77;100885.72;1736827;79;21209;-85
2021/01/17 13:56:07;;;;;;;25.02;11.45;;;;;;;-16.40;81.87;100879.53;1764974;80;21139;-85
2021/01/17 13:58:37;;;;;;;23.40;9.23;;;;;;;-16.36;82.05;100878.88;1757174;80;21583;-85
2021/01/17 14:01:07;;;;;;;30.15;10.95;;;;;;;-16.31;81.97;100885.30;1769691;80;21132;-87
2021/01/17 14:03:39;;;;;;;29.60;12.13;;;;;;;-16.27;81.93;100883.77;1772760;80;21756;-92
2021/01/17 14:06:18;;;;;;;30.88;9.08;;;;;;;-16.23;81.95;100876.84;1774224;79;21404;-85
2021/01/17 14:08:49;;;;;;;20.10;8.50;;;;;;;-16.08;83.55;100876.58;1769087;80;21178;-88
2021/01/17 14:11:29;;;;;;;27.13;11.20;;;;;;;-15.97;82.92;100874.48;1776562;79;21132;-85
2021/01/17 14:13:59;;;;;;;30.45;12.68;;;;;;;-15.95;82.42;100871.66;1755950;79;21163;-85
2021/01/17 14:16:41;;;;;;;23.15;11.20;;;;;;;-15.94;82.02;100875.44;1758102;80;21140;-87
2021/01/17 14:19:27;;;;;;;23.62;10.88;;;;;;;-15.93;81.72;100885.02;1770475;80;21365;-90
2021/01/17 14:21:57;;;;;;;26.52;11.08;;;;;;;-15.88;81.58;100891.05;1770839;79;21483;-87
2021/01/17 14:24:26;;;;;;;24.52;10.38;;;;;;;-15.85;80.84;100879.07;1770927;79;21127;-86
2021/01/17 14:30:44;;;;;;;25.00;10.60;;;;;;;-15.85;79.79;100879.07;1750522;82;21565;-87
2021/01/17 14:37:36;;;;;;;30.32;11.65;;;;;;;-15.88;79.64;100876.91;1750365;82;21431;-87
2021/01/17 14:44:29;;;;;;;30.50;13.25;;;;;;;-15.88;79.31;100874.41;1781522;80;21143;-87
2021/01/17 14:51:24;;;;;;;23.38;9.45;;;;;;;-15.81;79.63;100869.61;1781436;80;21138;-88
2021/01/17 14:58:15;;;;;;;9.88;3.95;;;;;;;-15.75;80.33;100869.44;1781319;79;21174;-86
2021/01/17 15:00:49;;;;;;;27.55;10.43;;;;;;;-15.51;84.26;100870.27;1781359;80;21546;-92
2021/01/17 15:03:25;;;;;;;26.65;11.20;;;;;;;-15.44;82.68;100872.19;1779244;79;21050;-93
2021/01/17 15:09:17;;;;;;;22.67;8.68;;;;;;;-15.53;80.72;100865.61;1789451;79;21079;-89
2021/01/17 15:11:45;;;;;;;22.73;8.20;;;;;;;-15.67;79.52;100881.34;1789483;80;21151;-91
2021/01/17 15:14:13;;;;;;;23.45;10.15;;;;;;;-15.73;79.10;100876.59;1774233;80;21539;-91
2021/01/17 15:16:41;;;;;;;29.82;10.78;;;;;;;-15.80;80.35;100873.81;1750083;82;21170;-91
2021/01/17 15:19:10;;;;;;;32.70;11.57;;;;;;;-15.82;79.44;100880.41;1763125;80;21371;-92
2021/01/17 15:21:38;;;;;;;27.85;11.75;;;;;;;-15.87;79.22;100882.77;1767035;81;21146;-92
2021/01/17 15:24:14;;;;;;;26.52;11.33;;;;;;;-15.92;79.28;100876.36;1766817;81;21551;-92
2021/01/17 15:26:36;;;;;;;20.72;10.58;;;;;;;-15.94;78.98;100874.20;1794443;79;21027;-92
2021/01/17 15:29:05;;;;;;;23.55;9.40;;;;;;;-15.98;78.53;100884.84;1767647;79;21120;-92
2021/01/17 15:32:07;;;;;;;23.95;10.60;;;;;;;-16.02;78.45;100885.13;1766726;81;21372;-92
2021/01/17 15:34:37;;;;;;;51.05;18.20;;;;;;;-16.07;78.27;100881.62;1766941;81;21194;-90
2021/01/17 15:37:08;;;;;;;45.70;15.03;;;;;;;-16.13;78.46;100881.77;1766981;81;21249;-91
2021/01/17 15:39:36;;;;;;;35.48;12.95;;;;;;;-16.12;78.92;100877.24;1766953;81;21547;-91
2021/01/17 15:42:06;;;;;;;28.83;11.35;;;;;;;-16.10;79.05;100885.23;1767044;81;21099;-91
2021/01/17 15:44:41;;;;;;;30.82;13.65;;;;;;;-16.06;79.19;100892.05;1781066;79;21361;-92
2021/01/17 15:47:10;;;;;;;26.17;10.70;;;;;;;-16.04;79.25;100894.59;1776257;80;21197;-91
2021/01/17 15:49:37;;;;;;;19.95;8.98;;;;;;;-16.04;79.06;100891.73;1776351;80;21141;-91
2021/01/17 15:52:09;;;;;;;24.40;10.85;;;;;;;-16.03;79.00;100891.31;1776256;80;21178;-92
2021/01/17 15:55:05;;;;;;;25.75;9.63;;;;;;;-16.03;79.06;100896.30;1773249;80;21143;-92
2021/01/17 15:57:33;;;;;;;30.25;11.08;;;;;;;-16.01;79.00;100893.48;1757345;80;21357;-92
2021/01/17 16:00:01;;;;;;;33.23;12.30;;;;;;;-16.00;79.20;100893.94;1766968;79;21186;-92
2021/01/17 16:02:35;;;;;;;28.05;10.32;;;;;;;-16.00;79.18;100888.08;1764879;81;21131;-91
2021/01/17 16:05:06;;;;;;;20.37;9.08;;;;;;;-16.00;79.15;100889.33;1766996;80;21178;-92
2021/01/17 16:07:41;;;;;;;36.08;14.13;;;;;;;-15.99;79.23;100890.66;1777821;79;21166;-93
2021/01/17 16:10:10;;;;;;;25.77;11.38;;;;;;;-15.99;79.13;100891.91;1767020;81;21364;-92
2021/01/17 16:12:38;;;;;;;27.52;10.95;;;;;;;-16.00;79.11;100892.69;1797827;79;21076;-93
2021/01/17 16:15:08;;;;;;;36.45;12.37;;;;;;;-16.02;79.14;100896.77;1798684;79;21068;-92
2021/01/17 16:17:36;;;;;;;30.17;9.80;;;;;;;-16.04;79.05;100900.84;1798524;79;21186;-90
2021/01/17 16:20:07;;;;;;;30.45;12.88;;;;;;;-16.03;79.73;100915.02;1798650;79;21134;-93
2021/01/17 16:22:36;;;;;;;38.13;15.08;;;;;;;-15.93;81.48;100922.45;1798560;79;22116;-92
2021/01/17 16:25:39;;;;;;;40.63;15.08;;;;;;;-15.81;80.90;100926.64;1780164;79;21167;-92
2021/01/17 16:28:09;;;;;;;30.68;11.83;;;;;;;-15.79;80.48;100936.67;1766860;79;21166;-92
2021/01/17 16:30:38;;;;;;;21.15;8.45;;;;;;;-15.78;80.04;100938.37;1767045;80;21107;-92
2021/01/17 16:33:36;;;;;;;21.45;9.33;;;;;;;-15.81;79.79;100940.74;1802053;78;21155;-90
2021/01/17 16:40:29;;;;;;;19.60;8.18;;;;;;;-15.87;79.78;100936.43;1798590;79;21112;-87
2021/01/17 16:47:21;;;;;;;17.50;7.35;;;;;;;-16.02;79.77;100935.44;1800429;79;21163;-87
2021/01/17 16:53:20;;;;;;;21.40;8.30;;;;;;;-16.30;80.29;100936.84;1809666;79;22148;-88
2021/01/17 16:59:47;;;;;;;14.73;6.22;;;;;;;-16.51;81.06;100940.20;1809920;79;21117;-89
2021/01/17 17:02:53;;;;;;;19.77;8.03;;;;;;;-16.55;81.31;100937.15;1806606;79;21109;-89
2021/01/17 17:09:48;;;;;;;20.62;8.43;;;;;;;-16.59;81.78;100939.05;1783399;79;21623;-91
2021/01/17 17:12:51;;;;;;;21.15;8.73;;;;;;;-16.60;81.89;100941.48;1766836;79;21147;-90
2021/01/17 17:15:20;;;;;;;22.05;10.08;;;;;;;-16.61;82.05;100938.13;1796088;78;21108;-90
2021/01/17 17:21:39;;;;;;;11.00;4.90;;;;;;;-16.60;82.41;100925.28;1767124;78;21243;-90
2021/01/17 17:24:08;;;;;;;10.98;4.53;;;;;;;-16.66;82.89;100917.16;1815491;77;21637;-90
2021/01/17 17:30:00;;;;;;;26.93;11.12;;;;;;;-16.75;82.87;100923.00;1816761;78;21404;-89
2021/01/17 17:36:02;;;;;;;17.02;7.37;;;;;;;-16.82;83.79;100940.20;1796346;79;21181;-89
2021/01/17 17:42:52;;;;;;;15.75;5.67;;;;;;;-16.86;84.21;100938.77;1806109;78;21113;-87
2021/01/17 17:49:45;;;;;;;16.52;6.53;;;;;;;-16.89;84.79;100923.67;1771658;81;21180;-88
2021/01/17 17:56:43;;;;;;;17.02;7.03;;;;;;;-16.93;85.95;100913.17;1780219;80;21140;-88
2021/01/17 18:03:43;;;;;;;22.27;10.05;;;;;;;-16.93;85.98;100914.42;1733210;80;21146;-90
2021/01/17 18:06:11;;;;;;;19.23;6.35;;;;;;;-16.91;86.31;100914.90;1774966;79;21240;-89
2021/01/17 18:08:42;;;;;;;8.45;2.95;;;;;;;-16.88;86.43;100914.17;1796331;79;21219;-89
2021/01/17 18:11:10;;;;;;;11.40;6.45;;;;;;;-16.88;86.37;100911.68;1796363;79;21086;-89
2021/01/17 18:17:06;;;;;;;21.42;9.85;;;;;;;-16.92;86.32;100917.38;1764977;81;21145;-90
2021/01/17 18:23:50;;;;;;;18.80;7.25;;;;;;;-16.86;86.22;100932.54;1774688;79;20273;-92
2021/01/17 18:26:19;;;;;;;24.85;10.78;;;;;;;-16.84;86.16;100926.82;1807316;78;21347;-90
2021/01/17 18:28:53;;;;;;;11.70;4.37;;;;;;;-16.82;86.12;100931.48;1796163;79;21177;-93
2021/01/17 18:31:49;;;;;;;38.85;15.40;;;;;;;-16.80;86.21;100936.52;1796286;79;21145;-93
2021/01/17 18:34:25;;;;;;;35.05;14.47;;;;;;;-16.77;86.16;100938.28;1789223;78;21113;-92
2021/01/17 18:36:56;;;;;;;21.90;9.85;;;;;;;-16.76;86.00;100942.11;1795514;79;21180;-92
2021/01/17 18:39:25;;;;;;;20.35;9.05;;;;;;;-16.73;85.96;100935.98;1713377;82;21207;-92
2021/01/17 18:42:28;;;;;;;27.55;10.18;;;;;;;-16.70;85.74;100933.62;1730423;82;21195;-92
2021/01/17 18:44:55;;;;;;;36.90;13.70;;;;;;;-16.70;85.51;100933.62;1732201;81;21510;-92
2021/01/17 18:47:54;;;;;;;31.33;12.95;;;;;;;-16.68;85.54;100923.34;1729893;82;21175;-92
2021/01/17 18:50:26;;;;;;;36.55;14.38;;;;;;;-16.63;85.58;100925.14;1732136;82;21132;-91
2021/01/17 18:53:23;;;;;;;33.02;11.63;;;;;;;-16.59;85.40;100923.25;1735209;82;21133;-91
2021/01/17 18:55:51;;;;;;;31.82;13.05;;;;;;;-16.56;87.22;100919.23;1742736;82;21127;-91
2021/01/17 18:58:25;;;;;;;16.05;7.35;;;;;;;-16.38;87.28;100924.50;1743580;82;21137;-91
2021/01/17 19:01:00;;;;;;;27.00;9.38;;;;;;;-16.40;85.89;100914.86;1721216;82;21143;-91
2021/01/17 19:03:29;;;;;;;29.57;11.60;;;;;;;-16.44;85.57;100921.74;1688019;82;21492;-91
2021/01/17 19:06:02;;;;;;;23.07;10.48;;;;;;;-16.50;85.41;100926.08;1731384;82;22283;-91
2021/01/17 19:12:05;;;;;;;16.48;5.53;;;;;;;-16.56;85.69;100943.30;1733147;82;21511;-92
2021/01/17 19:14:38;;;;;;;27.58;10.10;;;;;;;-16.56;85.81;100934.57;1732380;81;21158;-91
2021/01/17 19:17:13;;;;;;;19.02;8.23;;;;;;;-16.60;85.73;100926.13;1775711;80;21530;-92
2021/01/17 19:20:09;;;;;;;31.12;12.30;;;;;;;-16.62;85.68;100928.94;1764447;80;21546;-91
2021/01/17 19:22:43;;;;;;;14.95;5.37;;;;;;;-16.63;85.67;100931.00;1780434;79;21144;-92
2021/01/17 19:25:14;;;;;;;35.83;13.83;;;;;;;-16.59;85.72;100934.47;1796290;78;21181;-92
2021/01/17 19:27:43;;;;;;;41.77;17.77;;;;;;;-16.58;85.89;100934.93;1796328;79;21134;-92
2021/01/17 19:30:11;;;;;;;33.23;14.45;;;;;;;-16.55;85.78;100939.64;1796146;79;21153;-91
2021/01/17 19:32:40;;;;;;;31.25;13.72;;;;;;;-16.51;85.71;100940.61;1770927;79;22276;-91
2021/01/17 19:35:15;;;;;;;33.98;15.38;;;;;;;-16.48;85.66;100935.73;1785066;78;21149;-91
2021/01/17 19:37:43;;;;;;;34.25;15.45;;;;;;;-16.45;85.64;100930.88;1796161;79;21149;-91
2021/01/17 19:40:13;;;;;;;30.50;13.15;;;;;;;-16.43;85.69;100933.05;1759406;79;21112;-91
2021/01/17 19:42:41;;;;;;;41.75;15.95;;;;;;;-16.41;85.81;100924.38;1740822;81;21617;-91
2021/01/17 19:45:10;;;;;;;26.48;12.25;;;;;;;-16.37;85.79;100929.92;1786022;78;21306;-92
2021/01/17 19:47:38;;;;;;;38.75;13.25;;;;;;;-16.35;85.56;100925.85;1795436;79;21148;-92
2021/01/17 19:50:07;;;;;;;30.75;11.55;;;;;;;-16.32;85.60;100932.22;1796211;79;21142;-92
2021/01/17 19:52:35;;;;;;;36.88;14.50;;;;;;;-16.30;85.54;100923.13;1796255;79;21142;-91
2021/01/17 19:55:38;;;;;;;25.97;9.98;;;;;;;-16.28;85.52;100930.28;1812456;78;21550;-92
2021/01/17 19:58:08;;;;;;;32.93;12.80;;;;;;;-16.27;85.25;100929.50;1814903;78;22343;-92
2021/01/17 20:00:36;;;;;;;36.75;14.25;;;;;;;-16.26;85.18;100942.84;1814989;79;21146;-92
2021/01/17 20:03:36;;;;;;;30.43;13.38;;;;;;;-16.28;85.12;100940.67;1814945;79;21147;-92
2021/01/17 20:06:10;;;;;;;28.05;12.23;;;;;;;-16.29;85.13;100941.05;1815029;79;21115;-92
2021/01/17 20:08:38;;;;;;;19.15;8.70;;;;;;;-16.27;85.40;100939.88;1814801;78;21155;-92
2021/01/17 20:11:34;;;;;;;22.13;9.70;;;;;;;-16.26;85.27;100941.19;1814939;78;21566;-92
2021/01/17 20:14:10;;;;;;;20.02;8.90;;;;;;;-16.28;85.13;100934.44;1814812;79;21107;-92
2021/01/17 20:16:40;;;;;;;21.50;10.38;;;;;;;-16.33;84.85;100945.48;1814918;79;21562;-92
2021/01/17 20:19:12;;;;;;;36.50;16.07;;;;;;;-16.36;84.76;100937.48;1814953;79;21587;-91
2021/01/17 20:21:42;;;;;;;27.90;10.95;;;;;;;-16.36;84.75;100942.47;1815068;79;21119;-92
2021/01/17 20:24:14;;;;;;;32.83;12.55;;;;;;;-16.36;84.84;100937.48;1804607;78;21319;-92
2021/01/17 20:26:42;;;;;;;32.35;11.68;;;;;;;-16.35;84.98;100935.83;1777224;80;21529;-91
2021/01/17 20:29:11;;;;;;;18.00;8.45;;;;;;;-16.33;84.92;100945.48;1777217;79;21518;-91
2021/01/17 20:31:40;;;;;;;33.88;15.32;;;;;;;-16.32;85.16;100950.92;1777255;79;21114;-92
2021/01/17 20:34:15;;;;;;;35.00;13.60;;;;;;;-16.32;85.23;100950.05;1777336;79;26700;-92
2021/01/17 20:36:44;;;;;;;27.70;10.43;;;;;;;-16.34;85.12;100943.77;1777306;80;21589;-92
2021/01/17 20:39:14;;;;;;;23.77;10.80;;;;;;;-16.35;85.22;100942.93;1777118;80;21141;-91
2021/01/17 20:41:44;;;;;;;19.25;8.68;;;;;;;-16.32;85.19;100950.92;1777383;80;21113;-90
2021/01/17 20:48:11;;;;;;;30.90;12.25;;;;;;;-16.30;85.52;100955.55;1772038;79;21118;-92
2021/01/17 20:50:39;;;;;;;14.18;7.45;;;;;;;-16.30;85.78;100957.21;1756743;80;22245;-91
2021/01/17 20:53:07;;;;;;;12.53;6.50;;;;;;;-16.32;85.38;100958.41;1752855;79;21157;-91
2021/01/17 20:55:41;;;;;;;29.30;12.18;;;;;;;-16.33;85.70;100962.94;1793569;79;21146;-90
2021/01/17 20:58:09;;;;;;;22.87;7.83;;;;;;;-16.31;85.92;100967.98;1803733;79;21127;-90
2021/01/17 21:00:41;;;;;;;16.23;7.30;;;;;;;-16.27;85.99;100968.56;1767284;79;21604;-91
2021/01/17 21:03:09;;;;;;;14.68;7.55;;;;;;;-16.24;85.64;100973.66;1746820;80;22099;-90
2021/01/17 21:05:38;;;;;;;9.85;3.98;;;;;;;-16.25;85.18;100972.82;1797658;79;21143;-90
2021/01/17 21:08:07;;;;;;;18.77;8.55;;;;;;;-16.25;85.78;100967.84;1790831;79;21157;-90
2021/01/17 21:10:35;;;;;;;23.02;9.48;;;;;;;-16.22;86.01;100964.60;1762540;80;21185;-90
2021/01/17 21:13:03;;;;;;;27.13;11.08;;;;;;;-16.20;85.54;100971.35;1756173;79;21712;-90
2021/01/17 21:15:31;;;;;;;31.45;14.35;;;;;;;-16.19;85.61;100970.97;1746392;81;21359;-90
2021/01/17 21:18:09;;;;;;;42.17;15.93;;;;;;;-16.17;85.91;100974.36;1746415;80;21145;-90
2021/01/17 21:20:45;;;;;;;33.78;13.75;;;;;;;-16.13;86.11;100976.58;1746512;82;21514;-90
2021/01/17 21:23:13;;;;;;;28.60;12.35;;;;;;;-16.08;86.19;100968.89;1746344;81;21117;-90
2021/01/17 21:25:41;;;;;;;35.40;11.97;;;;;;;-16.02;86.30;100969.13;1746481;80;21118;-91
2021/01/17 21:28:09;;;;;;;15.50;6.22;;;;;;;-16.03;85.81;100964.55;1752381;80;21436;-91
2021/01/17 21:30:38;;;;;;;15.32;6.58;;;;;;;-16.07;85.55;100962.70;1761787;79;21110;-90
2021/01/17 21:33:41;;;;;;;7.58;4.00;;;;;;;-16.08;85.82;100962.66;1757707;80;21144;-89
2021/01/17 21:36:15;;;;;;;23.38;8.73;;;;;;;-16.06;85.91;100963.58;1764144;80;21513;-90
2021/01/17 21:38:48;;;;;;;21.65;8.98;;;;;;;-16.04;85.44;100963.22;1760350;80;21169;-90
2021/01/17 21:41:31;;;;;;;32.78;11.57;;;;;;;-16.05;85.31;100961.51;1761339;80;22113;-90
2021/01/17 21:44:00;;;;;;;24.30;10.53;;;;;;;-16.08;85.12;100962.66;1763297;80;21533;-90
2021/01/17 21:46:28;;;;;;;27.95;11.60;;;;;;;-16.09;85.31;100959.30;1763059;80;21121;-89
2021/01/17 21:48:56;;;;;;;16.17;7.75;;;;;;;-16.08;85.23;100961.00;1761565;80;21129;-90
2021/01/17 21:51:32;;;;;;;29.82;11.85;;;;;;;-16.09;85.19;100957.20;1760306;79;21116;-90
2021/01/17 21:54:00;;;;;;;26.85;11.95;;;;;;;-16.09;85.23;100958.05;1764324;80;21390;-90
2021/01/17 21:56:31;;;;;;;8.93;5.40;;;;;;;-16.08;84.83;100958.50;1760177;80;21158;-90
2021/01/17 21:58:59;;;;;;;18.95;9.48;;;;;;;-16.07;85.17;100955.22;1761382;80;21055;-91
2021/01/17 22:01:54;;;;;;;19.62;9.95;;;;;;;-16.06;84.91;100964.83;1759113;80;21712;-90
2021/01/17 22:04:24;;;;;;;12.82;5.80;;;;;;;-16.07;84.68;100957.72;1764262;80;21165;-91
2021/01/17 22:06:54;;;;;;;22.48;8.58;;;;;;;-16.10;84.63;100955.09;1763500;80;21435;-91
2021/01/17 22:09:22;;;;;;;21.27;10.13;;;;;;;-16.11;84.95;100954.66;1762664;80;21213;-90
2021/01/17 22:11:55;;;;;;;16.15;6.42;;;;;;;-16.13;84.75;100956.61;1747086;80;21145;-91
2021/01/17 22:14:24;;;;;;;13.25;7.15;;;;;;;-16.13;84.88;100965.34;1746666;82;21478;-91
2021/01/17 22:16:53;;;;;;;30.37;11.08;;;;;;;-16.15;84.30;100955.73;1746666;81;21145;-90
2021/01/17 22:19:22;;;;;;;17.62;8.95;;;;;;;-16.16;84.90;100951.53;1746799;80;21132;-91
2021/01/17 22:21:50;;;;;;;19.65;9.33;;;;;;;-16.15;84.83;100955.31;1762112;79;21121;-90
2021/01/17 22:24:19;;;;;;;26.05;10.60;;;;;;;-16.16;84.45;100942.80;1771099;80;21086;-91
2021/01/17 22:26:55;;;;;;;18.77;8.78;;;;;;;-16.17;84.48;100943.58;1762919;79;21160;-91
2021/01/17 22:29:23;;;;;;;8.53;4.78;;;;;;;-16.17;84.54;100944.83;1796279;79;21109;-91
2021/01/17 22:31:52;;;;;;;7.30;3.17;;;;;;;-16.17;84.92;100939.44;1780733;79;21251;-91
2021/01/17 22:34:25;;;;;;;24.45;12.05;;;;;;;-16.16;84.97;100946.53;1793921;79;21129;-91
2021/01/17 22:36:53;;;;;;;27.00;11.85;;;;;;;-16.13;85.54;100945.39;1796249;79;21141;-91
2021/01/17 22:39:50;;;;;;;31.50;11.95;;;;;;;-16.09;85.38;100947.23;1796281;79;21169;-91
2021/01/17 22:42:19;;;;;;;26.73;10.72;;;;;;;-16.07;85.22;100943.99;1773134;79;21129;-91
2021/01/17 22:44:48;;;;;;;17.00;8.50;;;;;;;-16.05;85.45;100941.55;1764972;81;21462;-91
2021/01/17 22:47:18;;;;;;;12.73;5.47;;;;;;;-16.08;85.78;100926.48;1764703;81;21663;-91
2021/01/17 22:49:46;;;;;;;22.07;10.18;;;;;;;-16.04;85.52;100937.02;1764716;81;21185;-91
2021/01/17 22:52:14;;;;;;;25.35;10.90;;;;;;;-16.07;85.30;100934.42;1764690;81;21146;-91
2021/01/17 22:54:42;;;;;;;19.92;9.30;;;;;;;-16.09;85.72;100922.28;1764812;80;21157;-91
2021/01/17 22:57:10;;;;;;;26.27;9.53;;;;;;;-16.08;85.57;100925.23;1786108;79;22111;-91
2021/01/17 22:59:40;;;;;;;36.75;14.95;;;;;;;-16.06;85.81;100928.64;1795928;79;21051;-91
2021/01/17 23:02:14;;;;;;;12.53;6.08;;;;;;;-16.07;85.80;100925.69;1795936;79;21566;-91
2021/01/17 23:04:43;;;;;;;30.92;11.28;;;;;;;-16.07;86.22;100927.78;1795787;79;21189;-90
2021/01/17 23:07:12;;;;;;;25.95;11.83;;;;;;;-16.05;86.10;100934.06;1795831;79;21144;-90
2021/01/17 23:09:43;;;;;;;26.17;10.23;;;;;;;-16.02;85.82;100937.94;1795892;79;21343;-91
2021/01/17 23:12:13;;;;;;;39.60;17.50;;;;;;;-16.01;85.46;100938.39;1774643;79;21192;-91
2021/01/17 23:14:41;;;;;;;32.80;14.58;;;;;;;-16.01;85.66;100937.14;1764337;81;21622;-90
2021/01/17 23:17:09;;;;;;;17.80;6.33;;;;;;;-16.01;85.55;100935.90;1764486;81;21454;-90